Sargents, Colorado
Current Conditions -  °F | °C
As of 11:57 PM on Thursday 27 Nov 2014 (Local Time) from KMYP Reporting Station
Clear Clear  
Wind Chill: 11°   Ceiling: Unl
Heat Index: 28°   Visibility: 10mi
Dew Point: 10°   Wind: 39mph
Humidity: 47%   Direction: 280°W
Pressure: 30.5"   Gusts: 44mph
Location:  38.4°N, 106.42°W
Report Text: KMYP 280657Z AUTO 28034G38KT 10SM CLR M02/M12 A3050 RMK AO2
Loading
Personal Weather Stations






























Interactive Weather Map New forecast layout! Learn more

10-Day Weather Forecast

Advertisements
Track Severe Weather on mobile